createdAt,value
2023-01-10T13:01:08.567Z,5.30
2023-01-10T13:06:27.698Z,6.00
2023-01-10T13:11:37.885Z,6.00
2023-01-10T13:23:06.538Z,5.90
2023-01-10T13:28:26.531Z,5.90
2023-01-10T13:33:36.574Z,5.90
2023-01-10T13:38:52.927Z,5.90
2023-01-10T13:44:14.733Z,5.90
2023-01-10T13:49:27.735Z,5.90
2023-01-10T13:54:31.283Z,5.90
2023-01-10T13:59:54.145Z,5.90
2023-01-10T14:04:57.372Z,5.90
2023-01-10T14:10:10.356Z,5.80
2023-01-10T14:15:34.477Z,5.90
2023-01-10T14:20:37.875Z,5.80
2023-01-10T14:26:26.991Z,5.90
2023-01-10T14:31:26.479Z,5.80
2023-01-10T14:36:46.945Z,5.80
2023-01-10T14:42:18.710Z,5.90
2023-01-10T14:47:36.032Z,5.90
2023-01-10T14:52:43.300Z,5.90
2023-01-10T14:57:58.413Z,5.80
2023-01-10T15:03:04.338Z,5.90
2023-01-10T15:08:29.197Z,5.80
2023-01-10T15:13:37.436Z,5.80
2023-01-10T15:18:56.014Z,5.90
2023-01-10T15:43:34.159Z,5.90
2023-01-10T15:49:17.447Z,5.90
2023-01-10T15:54:46.401Z,5.90
2023-01-10T16:00:46.935Z,5.80
2023-01-10T16:06:04.940Z,5.80
2023-01-10T16:11:49.023Z,5.70
2023-01-10T16:17:11.710Z,5.80
2023-01-10T16:22:19.578Z,5.70
2023-01-10T16:27:23.726Z,5.70
2023-01-10T16:32:36.037Z,5.70
2023-01-10T16:37:40.277Z,5.60
2023-01-10T16:43:01.842Z,5.60
2023-01-10T16:48:07.850Z,5.70
2023-01-10T16:53:16.600Z,5.60
2023-01-10T16:58:21.431Z,5.60
2023-01-10T17:03:26.231Z,5.60
2023-01-10T17:36:45.409Z,5.50
2023-01-10T17:42:39.696Z,5.40
2023-01-10T17:47:43.186Z,5.40
2023-01-10T17:52:46.717Z,5.40
2023-01-10T17:57:50.362Z,5.30
2023-01-10T18:02:54.213Z,5.30
2023-01-10T18:08:01.273Z,5.30
2023-01-10T18:13:42.662Z,5.30
2023-01-10T19:05:09.030Z,5.20
2023-01-10T19:10:20.993Z,5.30
2023-01-10T20:44:51.583Z,5.40
2023-01-10T23:20:47.967Z,4.50
2023-01-10T23:26:01.921Z,4.40
2023-01-10T23:50:31.935Z,4.10
